Time;durP1;ratioP1;P1;durP2;ratioP2;P2;SDS_P1;SDS_P2;PMS_P1;PMS_P2;Temp;Humidity;BMP_temperature;BMP_pressure;BME280_temperature;BME280_humidity;BME280_pressure;Samples;Min_cycle;Max_cycle;Signal;HPM_P1;HPM_P2
2023/07/11 00:05:01;;;;;;;6.88;3.90;;;;;;;19.57;61.47;101482.94;15430086;28;20037;-50
2023/07/11 00:12:37;;;;;;;5.03;3.60;;;;;;;19.40;63.03;101491.16;15446030;28;20039;-51
2023/07/11 00:20:13;;;;;;;6.25;3.60;;;;;;;19.31;62.73;101495.38;15430707;28;20109;-50
2023/07/11 00:27:48;;;;;;;7.93;4.13;;;;;;;18.92;64.05;101492.59;15430993;28;20396;-49
2023/07/11 00:35:21;;;;;;;7.38;4.10;;;;;;;19.16;63.74;101485.06;15413203;28;20055;-50
2023/07/11 00:42:55;;;;;;;6.70;4.60;;;;;;;19.04;64.06;101487.88;15429307;28;20027;-52
2023/07/11 00:50:31;;;;;;;9.50;4.47;;;;;;;18.93;64.39;101487.97;15423544;28;20058;-50
2023/07/11 00:58:05;;;;;;;;;;;;;;;18.73;64.80;101492.00;15433199;28;20138;-48
2023/07/11 01:05:40;;;;;;;5.53;4.00;;;;;;;18.78;64.30;101488.53;15422862;28;19922;-49
2023/07/11 01:13:16;;;;;;;6.55;4.45;;;;;;;18.58;64.67;101491.72;15439660;28;20046;-54
2023/07/11 01:20:49;;;;;;;10.05;4.72;;;;;;;18.43;65.05;101488.72;15438473;28;20184;-49
2023/07/11 01:28:24;;;;;;;6.70;4.60;;;;;;;18.30;65.50;101487.94;15439357;28;20047;-49
2023/07/11 01:35:57;;;;;;;6.75;4.82;;;;;;;18.29;65.44;101485.47;15437426;28;20401;-50
2023/07/11 01:43:31;;;;;;;;;;;;;;;18.02;65.40;101482.50;15454314;28;20138;-51
2023/07/11 01:51:05;;;;;;;8.35;4.60;;;;;;;17.83;65.16;101485.41;15436271;28;19922;-48
2023/07/11 01:58:39;;;;;;;8.35;5.25;;;;;;;17.96;65.01;101475.34;15452509;28;20043;-48
2023/07/11 02:06:12;;;;;;;5.88;4.70;;;;;;;17.84;65.44;101484.34;15395543;28;20141;-50
2023/07/11 02:13:46;;;;;;;6.32;5.10;;;;;;;17.61;66.74;101481.63;15436497;28;20047;-49
2023/07/11 02:21:19;;;;;;;8.40;4.90;;;;;;;17.60;66.69;101488.97;15436891;28;20555;-50
2023/07/11 02:28:58;;;;;;;7.28;5.50;;;;;;;17.51;67.00;101484.97;15436289;28;20314;-50
2023/07/11 02:36:34;;;;;;;8.65;5.57;;;;;;;17.47;67.08;101488.38;15435730;28;20046;-50
2023/07/11 02:44:09;;;;;;;10.60;5.93;;;;;;;17.54;65.91;101486.38;15435042;28;20061;-51
2023/07/11 02:51:44;;;;;;;7.88;5.80;;;;;;;17.38;66.62;101474.34;15435938;28;20047;-50
2023/07/11 02:59:18;;;;;;;9.98;5.65;;;;;;;17.30;66.87;101480.16;15433074;28;20047;-51
2023/07/11 03:06:53;;;;;;;7.82;5.65;;;;;;;17.21;67.29;101479.69;15434133;28;20058;-52
2023/07/11 03:14:28;;;;;;;7.75;5.97;;;;;;;17.21;67.55;101490.53;15433260;28;20058;-54
2023/07/11 03:22:01;;;;;;;8.43;5.93;;;;;;;17.14;67.58;101491.72;15431118;28;20337;-50
2023/07/11 03:29:35;;;;;;;;;;;;;;;17.15;68.05;101490.63;15433036;28;20074;-52
2023/07/11 03:37:09;;;;;;;8.48;6.70;;;;;;;17.27;68.16;101510.47;15431175;28;20454;-48
2023/07/11 03:44:44;;;;;;;8.73;5.97;;;;;;;17.11;67.80;101508.44;15432948;28;20053;-49
2023/07/11 03:52:22;;;;;;;8.25;6.15;;;;;;;17.45;67.56;101504.09;15432536;28;20051;-51
2023/07/11 03:59:56;;;;;;;9.10;6.22;;;;;;;17.55;67.70;101509.75;15405377;28;20087;-51
2023/07/11 04:07:29;;;;;;;10.63;6.55;;;;;;;17.75;66.70;101503.97;15431859;28;20051;-51
2023/07/11 04:15:04;;;;;;;11.38;7.18;;;;;;;17.90;66.20;101496.13;15431599;28;20051;-50
2023/07/11 04:22:37;;;;;;;8.60;7.10;;;;;;;18.16;66.16;101489.31;15414673;28;20105;-51
2023/07/11 04:30:13;;;;;;;10.20;7.40;;;;;;;18.15;66.72;101492.28;15431003;28;20071;-54
2023/07/11 04:37:46;;;;;;;9.68;7.03;;;;;;;18.39;66.41;101495.72;15442642;28;20146;-49
2023/07/11 04:45:22;;;;;;;15.60;6.93;;;;;;;18.44;66.49;101485.75;15443061;28;20097;-49
2023/07/11 04:53:13;;;;;;;9.02;6.57;;;;;;;18.73;65.55;101474.88;15442636;28;20043;-53
2023/07/11 05:00:48;;;;;;;8.63;6.18;;;;;;;18.80;65.66;101480.97;15442020;28;20055;-49
2023/07/11 05:08:21;;;;;;;13.57;7.07;;;;;;;19.20;64.80;101480.78;15447716;23;20063;-47
2023/07/11 05:16:00;;;;;;;10.25;6.18;;;;;;;19.39;65.25;101470.41;15379252;28;20051;-47
2023/07/11 05:23:33;;;;;;;9.25;6.05;;;;;;;20.05;64.42;101465.84;15352884;29;20044;-50
2023/07/11 05:31:09;;;;;;;9.98;6.57;;;;;;;20.35;64.21;101467.25;15349006;29;20044;-47
2023/07/11 05:38:42;;;;;;;8.75;5.57;;;;;;;21.08;62.38;101464.88;15333037;29;20051;-48
2023/07/11 05:46:16;;;;;;;8.50;5.78;;;;;;;21.51;61.12;101458.34;15345360;28;20109;-44
2023/07/11 05:53:49;;;;;;;7.85;5.18;;;;;;;21.62;61.59;101453.72;15354629;29;20054;-51
2023/07/11 06:01:26;;;;;;;9.20;5.47;;;;;;;21.82;60.84;101439.31;15343563;29;20070;-49
2023/07/11 06:08:59;;;;;;;12.77;6.47;;;;;;;22.15;59.67;101430.72;15332144;28;20047;-45
2023/07/11 06:16:33;;;;;;;7.50;5.80;;;;;;;22.32;59.32;101416.75;15341700;29;20051;-47
2023/07/11 06:24:07;;;;;;;8.48;4.65;;;;;;;23.26;56.92;101430.94;15351677;28;20534;-45
2023/07/11 06:31:41;;;;;;;5.97;4.40;;;;;;;23.07;56.68;101427.16;15351323;29;20062;-46
2023/07/11 06:39:15;;;;;;;4.55;3.53;;;;;;;23.19;55.99;101408.50;15332493;28;20117;-48
2023/07/11 06:46:49;;;;;;;5.32;3.20;;;;;;;23.11;54.98;101426.31;15344386;28;20055;-50
2023/07/11 06:54:22;;;;;;;7.20;3.17;;;;;;;23.56;54.19;101412.75;15351628;28;20040;-47
2023/07/11 07:01:56;;;;;;;4.15;2.60;;;;;;;24.02;51.08;101418.03;15337130;29;20131;-51
2023/07/11 07:09:29;;;;;;;4.93;2.78;;;;;;;23.78;52.17;101407.75;15329253;28;20054;-50
2023/07/11 07:17:04;;;;;;;4.68;2.53;;;;;;;24.39;48.78;101412.84;15344818;28;20082;-49
2023/07/11 07:24:37;;;;;;;7.13;2.80;;;;;;;24.37;49.77;101400.50;15350021;28;20047;-47
2023/07/11 07:32:11;;;;;;;4.25;2.67;;;;;;;25.04;46.87;101392.44;15352638;29;20080;-50
2023/07/11 07:39:44;;;;;;;5.43;2.53;;;;;;;25.00;47.05;101385.94;15367304;28;20047;-51
2023/07/11 07:47:19;;;;;;;5.43;2.50;;;;;;;25.72;44.93;101383.13;15343287;29;20054;-54
2023/07/11 07:54:52;;;;;;;3.97;2.67;;;;;;;25.87;43.75;101378.25;15348451;29;20051;-48
2023/07/11 08:02:27;;;;;;;4.90;2.10;;;;;;;25.98;41.27;101362.44;15332758;29;20054;-53
2023/07/11 08:10:00;;;;;;;3.50;2.20;;;;;;;26.79;40.35;101359.41;15334554;28;20100;-49
2023/07/11 08:17:34;;;;;;;6.60;1.90;;;;;;;27.57;37.23;101357.59;15358340;29;20633;-50
2023/07/11 08:25:08;;;;;;;4.28;2.10;;;;;;;27.20;37.64;101348.44;15360306;29;20047;-48
2023/07/11 08:32:43;;;;;;;3.95;2.20;;;;;;;26.82;39.24;101340.34;15345311;29;20354;-50
2023/07/11 08:40:20;;;;;;;3.42;2.15;;;;;;;27.20;40.09;101337.41;15359422;29;20487;-50
2023/07/11 08:48:01;;;;;;;3.75;2.00;;;;;;;27.15;39.23;101335.59;15337821;29;20121;-52
2023/07/11 08:55:39;;;;;;;5.28;2.22;;;;;;;28.24;40.04;101310.72;15337505;29;20055;-49
2023/07/11 09:03:22;;;;;;;3.75;1.92;;;;;;;28.91;35.47;101304.22;15357140;29;20118;-48
2023/07/11 09:11:10;;;;;;;3.95;2.10;;;;;;;28.40;35.85;101295.44;15357457;29;20139;-53
2023/07/11 09:18:52;;;;;;;3.78;1.60;;;;;;;27.38;37.49;101288.78;15328103;28;20354;-49
2023/07/11 09:26:28;;;;;;;4.07;1.52;;;;;;;27.24;35.55;101282.50;15344113;29;20131;-50
2023/07/11 09:34:09;;;;;;;5.50;1.80;;;;;;;28.43;36.66;101283.72;15348830;29;20056;-47
2023/07/11 09:41:51;;;;;;;4.47;1.87;;;;;;;28.89;32.74;101265.88;15318278;29;20039;-48
2023/07/11 09:49:30;;;;;;;5.90;1.70;;;;;;;29.44;33.91;101267.28;15349641;29;20362;-47
2023/07/11 09:57:10;;;;;;;7.00;2.05;;;;;;;28.50;32.84;101252.91;15330761;29;20051;-52
2023/07/11 10:04:46;;;;;;;5.05;1.83;;;;;;;29.21;34.98;101238.97;15349754;28;20139;-49
2023/07/11 10:12:23;;;;;;;4.90;1.95;;;;;;;30.16;32.30;101227.84;15368785;28;20515;-54
2023/07/11 10:19:59;;;;;;;3.30;2.10;;;;;;;29.63;31.77;101212.47;15338126;29;20054;-50
2023/07/11 10:27:38;;;;;;;5.35;2.08;;;;;;;30.62;30.94;101192.09;15347079;28;20035;-53
2023/07/11 10:35:16;;;;;;;5.20;2.08;;;;;;;30.28;32.18;101193.09;15347276;28;20048;-52
2023/07/11 10:42:57;;;;;;;5.35;2.15;;;;;;;29.57;31.85;101191.66;15356358;29;20126;-55
2023/07/11 10:50:38;;;;;;;6.55;2.10;;;;;;;31.15;30.14;101169.25;15346501;29;20059;-47
2023/07/11 10:58:11;;;;;;;;;;;;;;;29.93;30.73;101158.00;15352321;28;20134;-48
2023/07/11 11:05:54;;;;;;;5.35;2.13;;;;;;;31.34;29.84;101151.34;15334544;28;19957;-51
2023/07/11 11:13:35;;;;;;;5.30;2.15;;;;;;;31.86;30.15;101146.06;15328793;28;20051;-50
2023/07/11 11:21:17;;;;;;;5.72;2.17;;;;;;;31.79;29.56;101145.78;15341375;29;20048;-49
2023/07/11 11:28:59;;;;;;;3.60;2.28;;;;;;;30.23;30.62;101125.69;15344944;29;20091;-46
2023/07/11 11:36:46;;;;;;;4.25;2.15;;;;;;;31.97;28.34;101116.69;15336596;29;20055;-51
2023/07/11 11:44:22;;;;;;;4.57;2.08;;;;;;;31.57;30.48;101101.78;15327687;29;20047;-46
2023/07/11 11:51:57;;;;;;;3.55;1.83;;;;;;;32.77;26.59;101098.56;15340605;29;20055;-50
2023/07/11 11:59:33;;;;;;;3.95;1.90;;;;;;;32.81;27.87;101090.31;15348578;29;20074;-51
2023/07/11 12:07:24;;;;;;;2.85;1.73;;;;;;;33.33;25.51;101076.31;15335413;29;20138;-51
2023/07/11 12:15:00;;;;;;;4.10;2.13;;;;;;;33.17;25.90;101067.94;15326656;29;20145;-50
2023/07/11 12:23:11;;;;;;;5.30;2.10;;;;;;;33.14;26.37;101051.16;15338346;28;20387;-49
2023/07/11 12:30:46;;;;;;;4.80;1.75;;;;;;;32.87;26.57;101048.00;15341370;28;20059;-47
2023/07/11 12:38:29;;;;;;;4.13;1.70;;;;;;;32.86;25.87;101040.03;15334684;28;20051;-47
2023/07/11 12:46:26;;;;;;;3.65;1.92;;;;;;;31.84;25.78;101037.31;15360453;28;20099;-50
2023/07/11 12:54:24;;;;;;;3.40;2.05;;;;;;;32.59;24.96;101033.28;15361866;28;20071;-53
2023/07/11 13:02:20;;;;;;;3.72;2.20;;;;;;;31.53;26.92;101012.91;15389995;28;20113;-51
2023/07/11 13:10:21;;;;;;;3.78;2.42;;;;;;;32.10;26.98;101017.53;15335627;29;20043;-51
2023/07/11 13:18:28;;;;;;;6.80;2.38;;;;;;;31.94;26.89;101011.88;15348506;29;20090;-51
2023/07/11 13:26:24;;;;;;;6.32;2.67;;;;;;;31.61;27.31;100995.31;15356295;29;20052;-47
2023/07/11 13:34:19;;;;;;;14.13;8.48;;;;;;;32.50;25.90;100978.69;15340788;28;20432;-55
2023/07/11 13:42:13;;;;;;;5.93;2.60;;;;;;;30.20;29.97;100976.81;15355278;29;20521;-48
2023/07/11 13:49:56;;;;;;;4.80;2.28;;;;;;;31.12;28.64;100958.38;15349838;29;20053;-50
2023/07/11 13:57:30;;;;;;;6.38;2.40;;;;;;;30.77;29.73;100967.06;15332674;28;20050;-55
2023/07/11 14:05:24;;;;;;;5.57;2.70;;;;;;;30.85;27.70;100937.63;15320198;29;20478;-49
2023/07/11 14:12:59;;;;;;;4.75;2.80;;;;;;;31.45;27.44;100950.81;15367718;28;20560;-49
2023/07/11 14:20:32;;;;;;;5.07;3.10;;;;;;;30.51;27.95;100942.34;15364640;29;20062;-54
2023/07/11 14:28:12;;;;;;;4.68;2.80;;;;;;;30.92;28.60;100929.59;15322596;29;20052;-50
2023/07/11 14:35:47;;;;;;;4.93;3.08;;;;;;;30.89;27.75;100928.28;15364377;29;20046;-49
2023/07/11 14:43:25;;;;;;;4.63;3.00;;;;;;;30.72;29.00;100912.66;15331474;28;20043;-50
2023/07/11 14:51:04;;;;;;;5.03;2.85;;;;;;;30.88;26.91;100915.59;15333340;29;20126;-51
2023/07/11 14:58:44;;;;;;;5.18;2.67;;;;;;;30.99;28.51;100911.22;15350685;29;20062;-57
2023/07/11 15:06:18;;;;;;;6.00;3.03;;;;;;;31.17;28.45;100905.47;15349038;29;20137;-47
2023/07/11 15:13:53;;;;;;;6.15;3.40;;;;;;;30.66;28.25;100891.81;15328885;29;20048;-52
2023/07/11 15:21:27;;;;;;;5.90;3.17;;;;;;;30.44;28.99;100881.94;15332606;28;20059;-49
2023/07/11 15:29:01;;;;;;;4.90;3.20;;;;;;;30.75;28.83;100861.28;15363246;28;20537;-47
2023/07/11 15:36:34;;;;;;;6.60;3.03;;;;;;;30.79;29.35;100858.63;15333297;28;20516;-52
2023/07/11 15:44:42;;;;;;;5.20;3.08;;;;;;;30.49;28.97;100853.22;15349093;29;20119;-51
2023/07/11 15:52:16;;;;;;;5.38;3.70;;;;;;;30.77;28.79;100836.00;15346769;29;20531;-49
2023/07/11 15:59:51;;;;;;;7.20;4.03;;;;;;;30.94;28.15;100831.03;15327149;29;20307;-51
2023/07/11 16:07:24;;;;;;;7.63;4.57;;;;;;;30.51;29.34;100827.97;15330298;28;20390;-51
2023/07/11 16:14:58;;;;;;;7.75;4.43;;;;;;;30.47;28.95;100820.31;15347630;29;20452;-49
2023/07/11 16:22:31;;;;;;;7.35;4.20;;;;;;;30.77;28.26;100806.31;15345364;29;20061;-48
2023/07/11 16:30:16;;;;;;;6.72;3.92;;;;;;;30.15;29.84;100799.00;15325432;28;20055;-49
2023/07/11 16:37:49;;;;;;;6.15;3.88;;;;;;;30.19;29.38;100784.13;15356823;29;20180;-52
2023/07/11 16:45:29;;;;;;;6.13;4.13;;;;;;;30.71;28.90;100780.00;15349527;29;20051;-52
2023/07/11 16:53:11;;;;;;;6.88;4.50;;;;;;;30.37;29.25;100761.81;15340661;28;20051;-50
2023/07/11 17:00:46;;;;;;;7.82;4.40;;;;;;;30.16;29.14;100764.63;15357840;29;20055;-49
2023/07/11 17:08:21;;;;;;;8.27;4.32;;;;;;;30.18;29.76;100756.81;15355470;29;20089;-58
2023/07/11 17:15:56;;;;;;;6.47;4.28;;;;;;;30.22;29.43;100743.91;15334956;29;20046;-58
2023/07/11 17:23:29;;;;;;;8.02;4.05;;;;;;;30.05;29.87;100738.50;15338756;29;20079;-56
2023/07/11 17:31:03;;;;;;;6.18;4.32;;;;;;;30.01;30.22;100732.03;15353754;29;20051;-58
2023/07/11 17:38:36;;;;;;;9.18;4.80;;;;;;;30.10;30.50;100724.44;15339383;28;20059;-52
2023/07/11 17:46:13;;;;;;;7.28;4.00;;;;;;;29.95;30.25;100723.94;15354744;29;20059;-52
2023/07/11 17:53:47;;;;;;;7.47;4.53;;;;;;;29.86;30.26;100719.66;15349731;29;20055;-50
2023/07/11 18:01:21;;;;;;;8.70;4.57;;;;;;;29.94;31.30;100702.97;15332531;29;20085;-55
2023/07/11 18:08:55;;;;;;;11.80;4.85;;;;;;;29.76;31.91;100696.00;15338414;29;20052;-55
2023/07/11 18:16:30;;;;;;;10.02;4.38;;;;;;;29.51;32.01;100697.00;15368279;28;20043;-57
2023/07/11 18:24:03;;;;;;;8.27;4.28;;;;;;;29.14;33.13;100689.31;15345508;29;20093;-58
2023/07/11 18:31:38;;;;;;;6.45;4.10;;;;;;;28.95;33.40;100687.03;15345224;29;20043;-53
2023/07/11 18:39:12;;;;;;;29.70;20.58;;;;;;;28.57;34.80;100677.97;15343848;29;20057;-58
2023/07/11 18:46:46;;;;;;;6.28;3.83;;;;;;;28.43;34.52;100678.19;15357852;28;20126;-57
2023/07/11 18:54:19;;;;;;;8.18;3.70;;;;;;;28.12;35.06;100681.22;15341101;28;20072;-57
2023/07/11 19:01:53;;;;;;;7.25;3.53;;;;;;;28.16;35.34;100663.66;15347593;29;20046;-52
2023/07/11 19:09:26;;;;;;;5.95;3.47;;;;;;;27.84;36.21;100680.78;15339055;28;20327;-56
2023/07/11 19:17:01;;;;;;;6.25;3.45;;;;;;;27.54;36.65;100674.34;15318247;29;20078;-55
2023/07/11 19:24:34;;;;;;;5.97;3.42;;;;;;;27.30;36.91;100666.56;15338912;29;20062;-54
2023/07/11 19:32:11;;;;;;;7.70;3.63;;;;;;;27.08;37.27;100649.06;15323590;29;20047;-58
2023/07/11 19:39:44;;;;;;;7.30;3.90;;;;;;;27.11;37.32;100644.84;15337539;29;20082;-51
2023/07/11 19:47:20;;;;;;;5.38;3.47;;;;;;;27.02;37.50;100644.00;15348708;29;20381;-57
2023/07/11 19:54:53;;;;;;;9.35;3.55;;;;;;;26.92;37.98;100640.44;15335610;29;20039;-54
2023/07/11 20:02:28;;;;;;;5.65;3.72;;;;;;;26.63;40.05;100615.44;15327363;29;20071;-54
2023/07/11 20:10:00;;;;;;;7.38;4.07;;;;;;;26.12;39.76;100614.13;15341452;28;20052;-53
2023/07/11 20:17:35;;;;;;;7.97;4.40;;;;;;;26.06;39.72;100582.38;15363366;28;20481;-52
2023/07/11 20:25:09;;;;;;;8.75;4.20;;;;;;;25.87;40.23;100588.94;15334489;29;20491;-53
2023/07/11 20:32:44;;;;;;;14.25;4.07;;;;;;;25.52;40.64;100573.38;15362803;28;20039;-55
2023/07/11 20:40:23;;;;;;;13.70;9.68;;;;;;;25.66;39.67;100557.59;15333375;29;20186;-53
2023/07/11 20:47:57;;;;;;;7.88;4.38;;;;;;;25.55;40.18;100526.00;15327149;29;20046;-55
2023/07/11 20:55:31;;;;;;;6.45;4.20;;;;;;;25.49;39.76;100524.53;15341546;29;20083;-54
2023/07/11 21:03:05;;;;;;;10.30;4.15;;;;;;;25.53;39.75;100533.75;15326855;29;20043;-53
2023/07/11 21:10:40;;;;;;;8.63;4.20;;;;;;;25.55;39.38;100545.25;15350018;29;20055;-56
2023/07/11 21:18:18;;;;;;;12.10;4.78;;;;;;;25.48;39.23;100542.16;15358435;29;20101;-55
2023/07/11 21:25:52;;;;;;;8.20;4.45;;;;;;;25.48;39.37;100572.38;15326988;29;20047;-53
2023/07/11 21:33:27;;;;;;;8.23;4.72;;;;;;;25.30;39.71;100546.72;15332491;29;20377;-54
2023/07/11 21:41:02;;;;;;;9.43;4.55;;;;;;;25.16;40.07;100525.63;15365995;28;20052;-51
2023/07/11 21:48:36;;;;;;;6.97;4.63;;;;;;;24.88;41.24;100513.13;15355202;29;20062;-52
2023/07/11 21:56:19;;;;;;;10.63;5.10;;;;;;;24.87;41.10;100501.34;15374679;29;20052;-57
2023/07/11 22:03:53;;;;;;;6.68;4.60;;;;;;;24.99;40.53;100495.25;15415619;28;20054;-52
2023/07/11 22:11:31;;;;;;;6.50;4.30;;;;;;;24.58;40.98;100490.78;15433745;28;20142;-55
2023/07/11 22:19:23;;;;;;;7.30;4.45;;;;;;;24.54;41.84;100481.53;15433170;28;20070;-55
2023/07/11 22:26:55;;;;;;;5.30;4.63;;;;;;;24.34;42.19;100484.69;15430265;28;20066;-56
2023/07/11 22:34:30;;;;;;;5.38;3.90;;;;;;;24.23;42.08;100483.31;15431354;28;20141;-52
2023/07/11 22:42:03;;;;;;;8.63;4.13;;;;;;;24.37;41.72;100482.19;15414777;28;20051;-52
2023/07/11 22:49:37;;;;;;;10.57;4.60;;;;;;;24.10;42.40;100476.72;15431708;28;20051;-52
2023/07/11 22:57:10;;;;;;;5.38;4.25;;;;;;;24.09;42.26;100461.41;15446334;28;20062;-50
2023/07/11 23:04:44;;;;;;;5.68;4.40;;;;;;;23.68;43.11;100435.63;15413520;28;20138;-45
2023/07/11 23:12:18;;;;;;;7.13;4.45;;;;;;;23.70;43.10;100418.91;15430699;28;20047;-49
2023/07/11 23:19:52;;;;;;;9.52;4.60;;;;;;;23.68;43.44;100407.44;15428259;28;20061;-49
2023/07/11 23:27:26;;;;;;;5.70;4.20;;;;;;;23.78;43.54;100407.25;15428048;28;20070;-46
2023/07/11 23:35:00;;;;;;;8.15;4.28;;;;;;;23.64;43.72;100399.03;15428848;28;20397;-48
2023/07/11 23:42:33;;;;;;;6.55;4.53;;;;;;;23.73;43.65;100387.34;15411143;28;20163;-45
2023/07/11 23:50:17;;;;;;;7.20;4.57;;;;;;;23.91;42.79;100384.44;15428419;28;20062;-46
2023/07/11 23:57:49;;;;;;;8.93;4.20;;;;;;;23.54;43.49;100385.50;15402234;28;20051;-45
